Time;durP1;ratioP1;P1;durP2;ratioP2;P2;SDS_P1;SDS_P2;PMS_P1;PMS_P2;Temp;Humidity;BMP_temperature;BMP_pressure;BME280_temperature;BME280_humidity;BME280_pressure;Samples;Min_cycle;Max_cycle;Signal;HPM_P1;HPM_P2
2022/01/01 00:00:35;;;;;;;5.43;2.40;;;15.60;83.00;;;;;;5011690;28;20112;-75
2022/01/01 00:03:01;;;;;;;5.00;2.10;;;15.60;83.00;;;;;;5012149;28;20034;-76
2022/01/01 00:05:28;;;;;;;3.90;2.00;;;15.60;83.30;;;;;;5011542;28;20285;-74
2022/01/01 00:07:54;;;;;;;3.50;1.52;;;15.50;83.10;;;;;;5011694;28;20029;-75
2022/01/01 00:10:21;;;;;;;4.20;1.63;;;15.50;83.40;;;;;;5011568;28;20030;-75
2022/01/01 00:12:47;;;;;;;4.70;2.42;;;15.50;82.60;;;;;;5011461;28;20022;-75
2022/01/01 00:15:14;;;;;;;3.80;1.75;;;15.50;82.80;;;;;;5011595;28;20153;-76
2022/01/01 00:17:41;;;;;;;;;;;15.50;83.00;;;;;;4993933;28;20037;-74
2022/01/01 00:20:09;;;;;;;3.72;1.70;;;15.40;83.20;;;;;;4997925;28;19924;-75
2022/01/01 00:22:39;;;;;;;3.15;1.67;;;15.50;83.00;;;;;;4998324;28;20026;-75
2022/01/01 00:25:17;;;;;;;3.60;1.95;;;15.50;82.60;;;;;;5015517;28;20022;-75
2022/01/01 00:27:43;;;;;;;3.33;2.05;;;15.60;82.60;;;;;;5015407;28;20034;-75
2022/01/01 00:30:10;;;;;;;5.53;2.63;;;15.60;82.80;;;;;;5015426;28;20052;-76
2022/01/01 00:32:37;;;;;;;3.13;1.60;;;15.50;83.00;;;;;;5018005;28;20026;-74
2022/01/01 00:35:04;;;;;;;3.08;1.33;;;15.40;83.80;;;;;;5015310;28;20129;-75
2022/01/01 00:37:30;;;;;;;3.28;1.45;;;15.20;83.90;;;;;;5015649;28;20030;-74
2022/01/01 00:39:56;;;;;;;3.77;2.10;;;15.20;84.20;;;;;;5015369;28;20045;-74
2022/01/01 00:42:23;;;;;;;5.30;2.10;;;15.10;84.90;;;;;;5015890;28;20340;-76
2022/01/01 00:44:50;;;;;;;4.43;2.00;;;15.00;85.30;;;;;;5015671;28;20108;-75
2022/01/01 00:47:16;;;;;;;3.97;2.30;;;15.00;85.70;;;;;;5015135;28;20030;-75
2022/01/01 00:49:42;;;;;;;4.68;2.03;;;14.90;86.00;;;;;;5015239;28;20080;-75
2022/01/01 00:52:09;;;;;;;4.07;1.73;;;14.90;86.40;;;;;;5015104;28;20061;-75
2022/01/01 00:54:35;;;;;;;;;;;14.80;86.30;;;;;;5015256;28;20092;-75
2022/01/01 00:57:01;;;;;;;5.43;2.30;;;14.80;86.00;;;;;;5014771;28;19913;-75
2022/01/01 00:59:29;;;;;;;3.07;1.27;;;15.10;85.00;;;;;;5015353;28;20030;-75
2022/01/01 01:01:55;;;;;;;3.92;1.90;;;15.30;84.40;;;;;;5014937;28;20669;-75
2022/01/01 01:04:21;;;;;;;5.03;2.27;;;15.40;84.30;;;;;;5014993;28;20120;-74
2022/01/01 01:06:47;;;;;;;4.32;1.70;;;15.30;85.70;;;;;;5029883;28;20487;-74
2022/01/01 01:09:13;;;;;;;4.50;1.50;;;15.10;85.90;;;;;;5015148;28;20033;-75
2022/01/01 01:11:52;;;;;;;3.37;1.90;;;14.90;86.20;;;;;;5014513;28;20053;-74
2022/01/01 01:14:21;;;;;;;4.10;1.80;;;14.80;86.90;;;;;;5014761;28;20272;-74
2022/01/01 01:16:48;;;;;;;6.18;2.40;;;14.70;87.10;;;;;;4997221;28;20467;-75
2022/01/01 01:19:14;;;;;;;;;;;14.70;87.30;;;;;;5014893;28;20112;-74
2022/01/01 01:21:40;;;;;;;3.72;1.42;;;14.70;87.30;;;;;;4996712;28;19905;-76
2022/01/01 01:24:06;;;;;;;2.97;1.42;;;14.70;86.90;;;;;;5014558;28;20024;-75
2022/01/01 01:26:32;;;;;;;3.37;1.37;;;14.70;87.30;;;;;;5014222;28;20033;-74
2022/01/01 01:29:01;;;;;;;3.73;1.60;;;14.70;87.60;;;;;;5014466;28;20342;-75
2022/01/01 01:31:29;;;;;;;3.25;1.30;;;14.70;87.40;;;;;;5013524;28;20044;-75
2022/01/01 01:33:55;;;;;;;2.85;1.40;;;14.70;87.30;;;;;;5014461;28;20022;-75
2022/01/01 01:36:21;;;;;;;4.20;1.40;;;14.80;87.50;;;;;;5014601;28;20029;-74
2022/01/01 01:38:47;;;;;;;3.20;1.10;;;14.70;87.60;;;;;;5014357;28;20021;-74
2022/01/01 01:41:13;;;;;;;2.37;1.10;;;14.70;87.80;;;;;;5014224;28;20109;-75
2022/01/01 01:43:39;;;;;;;2.77;1.00;;;14.60;88.00;;;;;;5014250;28;20256;-74
2022/01/01 01:46:07;;;;;;;2.97;1.30;;;14.60;88.00;;;;;;5014572;28;20311;-75
2022/01/01 01:48:35;;;;;;;2.35;1.10;;;14.60;88.30;;;;;;5014362;28;20054;-74
2022/01/01 01:51:01;;;;;;;2.63;1.10;;;14.60;88.30;;;;;;5014122;28;20049;-74
2022/01/01 01:53:28;;;;;;;2.95;1.38;;;14.70;88.20;;;;;;5014270;28;20022;-75
2022/01/01 01:55:57;;;;;;;3.83;1.40;;;14.70;88.00;;;;;;5013801;28;20125;-75
2022/01/01 01:58:23;;;;;;;2.55;1.17;;;14.70;88.30;;;;;;5014247;28;20084;-75
2022/01/01 02:03:34;;;;;;;2.75;1.40;;;14.70;88.30;;;;;;5014210;28;20037;-74
2022/01/01 02:06:00;;;;;;;3.03;1.43;;;14.70;88.80;;;;;;5013510;28;20033;-74
2022/01/01 02:08:27;;;;;;;4.43;1.93;;;14.60;89.30;;;;;;5014083;28;20269;-74
2022/01/01 02:10:54;;;;;;;4.10;1.73;;;14.70;88.60;;;;;;4995889;28;20026;-73
2022/01/01 02:13:27;;;;;;;3.20;1.30;;;14.70;88.70;;;;;;4979905;28;20030;-74
2022/01/01 02:18:20;;;;;;;3.35;1.90;;;14.90;87.80;;;;;;5013958;28;20026;-74
2022/01/01 02:20:50;;;;;;;2.75;1.17;;;15.00;87.40;;;;;;5013744;28;20104;-75
2022/01/01 02:23:25;;;;;;;3.13;1.23;;;15.10;87.30;;;;;;5013503;28;20163;-75
2022/01/01 02:25:52;;;;;;;2.70;1.00;;;15.00;87.30;;;;;;5013780;28;20030;-74
2022/01/01 02:28:19;;;;;;;3.53;1.48;;;15.00;87.40;;;;;;5013792;28;20099;-75
2022/01/01 02:30:45;;;;;;;;;;;15.00;87.90;;;;;;5013538;28;20049;-74
2022/01/01 02:33:11;;;;;;;2.08;1.20;;;14.90;88.20;;;;;;4995564;28;19927;-74
2022/01/01 02:35:37;;;;;;;3.20;1.33;;;14.90;88.20;;;;;;5013435;28;20036;-74
2022/01/01 02:38:03;;;;;;;3.10;1.65;;;14.80;88.50;;;;;;5013533;28;20040;-75
2022/01/01 02:40:29;;;;;;;2.67;1.30;;;14.70;88.90;;;;;;5013480;28;20026;-74
2022/01/01 02:42:56;;;;;;;2.33;1.07;;;14.70;88.70;;;;;;5012534;28;20029;-75
2022/01/01 02:45:22;;;;;;;2.45;1.02;;;14.80;88.50;;;;;;5013081;28;20447;-75
2022/01/01 02:47:48;;;;;;;3.00;1.23;;;14.80;88.70;;;;;;4995162;28;20386;-74
2022/01/01 02:50:14;;;;;;;2.90;1.40;;;14.80;89.00;;;;;;5012849;28;20736;-74
2022/01/01 02:52:40;;;;;;;3.67;1.40;;;14.70;89.40;;;;;;5012858;28;20030;-75
2022/01/01 02:55:07;;;;;;;2.70;1.20;;;14.70;89.40;;;;;;5012736;28;20018;-74
2022/01/01 02:57:34;;;;;;;2.20;1.08;;;14.70;89.40;;;;;;5012498;28;20049;-74
2022/01/01 03:00:00;;;;;;;2.60;1.20;;;14.70;89.20;;;;;;5012640;28;20423;-73
2022/01/01 03:02:26;;;;;;;2.80;1.10;;;14.70;89.50;;;;;;5012593;28;20565;-73
2022/01/01 03:04:52;;;;;;;2.30;0.95;;;14.60;89.90;;;;;;5012368;28;20474;-75
2022/01/01 03:07:18;;;;;;;2.75;1.25;;;14.60;90.00;;;;;;4994563;28;20021;-74
2022/01/01 03:09:45;;;;;;;3.03;1.10;;;14.50;90.10;;;;;;5012472;28;20064;-74
2022/01/01 03:12:13;;;;;;;2.78;1.38;;;14.40;90.40;;;;;;5012366;28;20037;-74
2022/01/01 03:14:39;;;;;;;2.88;1.20;;;14.40;90.40;;;;;;5012400;28;20029;-74
2022/01/01 03:17:06;;;;;;;2.87;1.40;;;14.40;90.60;;;;;;5012194;28;20037;-74
2022/01/01 03:19:33;;;;;;;2.45;1.20;;;14.30;91.00;;;;;;5012059;28;20025;-75
2022/01/01 03:22:00;;;;;;;3.33;1.45;;;14.30;90.70;;;;;;5011971;28;20030;-74
2022/01/01 03:24:27;;;;;;;1.98;1.10;;;14.30;90.60;;;;;;5012080;28;20022;-74
2022/01/01 03:26:53;;;;;;;;;;;14.30;90.70;;;;;;5012219;28;20554;-74
2022/01/01 03:29:19;;;;;;;2.83;1.27;;;14.20;90.70;;;;;;5012194;28;19992;-75
2022/01/01 03:31:45;;;;;;;3.38;1.40;;;14.20;91.20;;;;;;5011821;28;20029;-74
2022/01/01 03:34:11;;;;;;;2.43;1.10;;;14.30;91.40;;;;;;5012105;28;20026;-74
2022/01/01 03:36:38;;;;;;;3.08;1.33;;;14.30;90.50;;;;;;5011855;28;20030;-74
2022/01/01 03:39:05;;;;;;;;;;;14.40;90.40;;;;;;5012332;28;20072;-71
2022/01/01 03:41:31;;;;;;;;;;;14.50;90.30;;;;;;5012383;28;19906;-75
2022/01/01 03:43:57;;;;;;;2.20;1.13;;;14.60;90.40;;;;;;5011983;28;20468;-74
2022/01/01 03:46:23;;;;;;;2.42;1.08;;;14.60;90.30;;;;;;5011764;28;20764;-75
2022/01/01 03:48:49;;;;;;;2.17;1.08;;;14.70;90.20;;;;;;5012453;28;20026;-74
2022/01/01 03:51:15;;;;;;;2.47;1.30;;;14.60;90.20;;;;;;5011806;28;20033;-74
2022/01/01 03:53:41;;;;;;;2.40;0.93;;;14.50;90.60;;;;;;5011447;28;20511;-74
2022/01/01 03:56:19;;;;;;;2.20;1.15;;;14.50;91.30;;;;;;5011650;28;20120;-75
2022/01/01 03:58:45;;;;;;;2.58;0.90;;;14.30;90.60;;;;;;5012046;28;20018;-74
2022/01/01 04:01:11;;;;;;;2.03;1.10;;;14.30;90.70;;;;;;5011941;28;20022;-74
2022/01/01 04:03:38;;;;;;;2.60;1.30;;;14.20;92.20;;;;;;5011794;28;20506;-74
2022/01/01 04:06:04;;;;;;;3.35;1.52;;;14.10;90.90;;;;;;5011593;28;20052;-74
2022/01/01 04:08:31;;;;;;;2.38;1.00;;;14.10;91.00;;;;;;5012051;28;20423;-74
2022/01/01 04:10:57;;;;;;;3.13;1.20;;;14.20;91.00;;;;;;5012088;28;20026;-74
2022/01/01 04:13:23;;;;;;;2.10;0.90;;;14.30;91.30;;;;;;5011967;28;20022;-74
2022/01/01 04:15:49;;;;;;;3.87;1.10;;;14.30;91.00;;;;;;5011569;28;20037;-74
2022/01/01 04:18:25;;;;;;;3.25;1.20;;;14.20;91.20;;;;;;5011752;28;20268;-74
2022/01/01 04:20:51;;;;;;;1.90;1.00;;;14.20;91.20;;;;;;5012139;28;20033;-74
2022/01/01 04:23:18;;;;;;;2.37;1.03;;;14.00;91.50;;;;;;5011981;28;20018;-74
2022/01/01 04:25:44;;;;;;;2.20;1.10;;;14.00;91.80;;;;;;5011951;28;20140;-74
2022/01/01 04:28:10;;;;;;;3.03;1.20;;;14.00;91.90;;;;;;5011369;28;20041;-74
2022/01/01 04:30:36;;;;;;;2.70;1.30;;;14.00;91.80;;;;;;5011898;28;20022;-74
2022/01/01 04:33:02;;;;;;;2.10;1.00;;;14.00;92.00;;;;;;5011603;28;20332;-74
2022/01/01 04:35:29;;;;;;;2.00;0.93;;;14.10;91.90;;;;;;5011465;28;20033;-74
2022/01/01 04:37:55;;;;;;;2.45;1.20;;;14.20;92.00;;;;;;5011780;28;20107;-74
2022/01/01 04:40:22;;;;;;;2.10;0.90;;;14.20;92.10;;;;;;5012098;28;20022;-76
2022/01/01 04:42:48;;;;;;;2.08;1.00;;;14.10;92.10;;;;;;5011531;28;20105;-74
2022/01/01 04:45:14;;;;;;;1.92;1.00;;;14.10;92.10;;;;;;5011567;28;20097;-74
2022/01/01 04:47:40;;;;;;;2.43;1.10;;;14.10;92.30;;;;;;5011352;28;20398;-74
2022/01/01 04:50:07;;;;;;;2.42;1.10;;;13.90;92.60;;;;;;5011375;28;20272;-74
2022/01/01 04:52:33;;;;;;;2.28;1.13;;;13.90;92.70;;;;;;4993756;28;20026;-75
2022/01/01 04:54:59;;;;;;;2.33;1.20;;;13.80;92.80;;;;;;5011419;28;20101;-73
2022/01/01 04:57:30;;;;;;;2.47;1.23;;;13.80;93.00;;;;;;5011078;28;20042;-74
2022/01/01 05:00:00;;;;;;;2.97;1.10;;;13.90;93.00;;;;;;5011304;28;20030;-73
2022/01/01 05:02:26;;;;;;;2.25;1.02;;;13.90;93.00;;;;;;5011700;28;20026;-74
2022/01/01 05:04:53;;;;;;;1.85;1.05;;;13.90;93.00;;;;;;5011314;28;20045;-74
2022/01/01 05:07:19;;;;;;;;;;;13.90;93.50;;;;;;5015196;28;20030;-74
2022/01/01 05:09:45;;;;;;;3.15;1.33;;;13.90;93.10;;;;;;5014827;28;19952;-74
2022/01/01 05:12:11;;;;;;;3.53;1.50;;;13.90;93.10;;;;;;5015253;28;20037;-74
2022/01/01 05:14:37;;;;;;;2.77;1.23;;;13.80;93.20;;;;;;5014698;28;20032;-73
2022/01/01 05:17:04;;;;;;;2.67;1.30;;;13.80;93.40;;;;;;5014679;28;20121;-74
2022/01/01 05:19:31;;;;;;;3.20;1.10;;;13.70;93.40;;;;;;5014784;28;20563;-75
2022/01/01 05:21:56;;;;;;;;;;;13.80;93.20;;;;;;5015679;28;20033;-74
2022/01/01 05:24:23;;;;;;;2.90;1.10;;;13.90;93.10;;;;;;5014522;28;19925;-74
2022/01/01 05:26:49;;;;;;;4.80;1.45;;;13.90;93.60;;;;;;5014663;28;20037;-74
2022/01/01 05:29:15;;;;;;;1.77;0.93;;;13.90;92.70;;;;;;4996773;28;20033;-74
2022/01/01 05:31:42;;;;;;;2.40;1.02;;;14.20;92.20;;;;;;5014618;28;20510;-74
2022/01/01 05:34:08;;;;;;;2.25;1.05;;;14.30;92.10;;;;;;5014566;28;20368;-73
2022/01/01 05:36:34;;;;;;;2.73;1.27;;;14.40;92.10;;;;;;5014208;28;20038;-73
2022/01/01 05:39:00;;;;;;;4.07;1.20;;;14.40;92.10;;;;;;5014187;28;20030;-74
2022/01/01 05:41:26;;;;;;;2.45;0.98;;;14.40;92.10;;;;;;5014648;28;20117;-74
2022/01/01 05:43:52;;;;;;;2.33;0.90;;;14.40;92.10;;;;;;4996491;28;20073;-75
2022/01/01 05:46:18;;;;;;;4.15;1.00;;;14.20;92.20;;;;;;5014348;28;20033;-75
2022/01/01 05:48:44;;;;;;;3.73;1.10;;;14.10;92.40;;;;;;5014151;28;20030;-74
2022/01/01 05:51:10;;;;;;;1.83;1.00;;;14.10;92.30;;;;;;5014581;28;20114;-73
2022/01/01 05:53:36;;;;;;;4.03;1.17;;;14.00;92.60;;;;;;5014187;28;20069;-74
2022/01/01 05:56:02;;;;;;;3.30;1.00;;;14.00;92.40;;;;;;5014218;28;20056;-75
2022/01/01 05:58:28;;;;;;;1.83;1.00;;;14.00;92.50;;;;;;5013929;28;20089;-74
2022/01/01 06:00:54;;;;;;;2.00;1.00;;;14.00;92.50;;;;;;5013732;28;20025;-73
2022/01/01 06:03:20;;;;;;;2.10;1.00;;;14.10;91.90;;;;;;5014023;28;20088;-74
2022/01/01 06:05:48;;;;;;;4.33;1.00;;;14.30;91.60;;;;;;5013469;28;20054;-73
2022/01/01 06:08:14;;;;;;;1.98;0.85;;;14.40;91.30;;;;;;4996100;28;20068;-73
2022/01/01 06:10:40;;;;;;;2.47;1.10;;;14.40;91.20;;;;;;5014079;28;20018;-74
2022/01/01 06:13:08;;;;;;;4.30;1.20;;;14.30;91.30;;;;;;5029110;28;20406;-74
2022/01/01 06:15:34;;;;;;;2.35;0.90;;;14.30;91.60;;;;;;5013681;28;20022;-72
2022/01/01 06:18:00;;;;;;;1.20;0.70;;;14.30;91.40;;;;;;5013918;28;20095;-73
2022/01/01 06:20:26;;;;;;;2.53;1.00;;;14.20;91.70;;;;;;5013990;28;20761;-73
2022/01/01 06:22:52;;;;;;;2.28;1.00;;;14.10;92.00;;;;;;5013397;28;20256;-73
2022/01/01 06:25:18;;;;;;;2.70;0.90;;;14.00;92.10;;;;;;5013636;28;20395;-72
2022/01/01 06:27:44;;;;;;;4.10;1.00;;;14.00;91.70;;;;;;5012844;28;20076;-73
2022/01/01 06:30:11;;;;;;;2.47;0.83;;;14.10;91.60;;;;;;5012774;28;20022;-72
2022/01/01 06:32:37;;;;;;;2.13;0.70;;;14.10;91.60;;;;;;5004618;28;20257;-72
2022/01/01 06:35:04;;;;;;;1.53;0.80;;;14.20;91.30;;;;;;5012610;28;20017;-71
2022/01/01 06:37:30;;;;;;;2.00;0.93;;;14.30;91.00;;;;;;5012651;28;20435;-73
2022/01/01 06:39:56;;;;;;;1.92;0.80;;;14.70;90.60;;;;;;5013191;28;20101;-72
2022/01/01 06:42:22;;;;;;;1.33;0.63;;;15.30;90.10;;;;;;5013558;28;20143;-72
2022/01/01 06:44:48;;;;;;;1.90;0.82;;;16.00;88.70;;;;;;5013010;28;20026;-72
2022/01/01 06:47:14;;;;;;;2.03;0.90;;;16.50;87.90;;;;;;5013459;28;20018;-72
2022/01/01 06:49:40;;;;;;;2.10;0.80;;;17.10;86.30;;;;;;5013466;28;20025;-72
2022/01/01 06:52:06;;;;;;;2.00;0.83;;;17.50;84.70;;;;;;5013467;28;20028;-72
2022/01/01 06:54:32;;;;;;;1.95;0.93;;;17.70;84.30;;;;;;5012986;28;20733;-72
2022/01/01 06:56:58;;;;;;;1.93;0.90;;;17.80;83.70;;;;;;5013231;28;20088;-73
2022/01/01 06:59:24;;;;;;;2.67;1.03;;;18.00;83.40;;;;;;5013337;28;20100;-73
2022/01/01 07:01:52;;;;;;;2.63;0.90;;;18.40;83.00;;;;;;5012917;28;20038;-72
2022/01/01 07:04:18;;;;;;;1.70;0.75;;;18.50;82.00;;;;;;5012783;28;20021;-72
2022/01/01 07:06:44;;;;;;;1.73;0.75;;;18.70;82.30;;;;;;4994576;28;20096;-73
2022/01/01 07:09:11;;;;;;;2.50;0.90;;;19.10;81.40;;;;;;5012756;28;20104;-72
2022/01/01 07:11:37;;;;;;;1.88;0.90;;;19.60;80.30;;;;;;5012664;28;20073;-73
2022/01/01 07:14:03;;;;;;;1.83;0.80;;;19.50;80.00;;;;;;5012624;28;20033;-73
2022/01/01 07:16:29;;;;;;;2.05;0.85;;;19.60;79.80;;;;;;5012884;28;20139;-72
2022/01/01 07:18:55;;;;;;;2.97;0.90;;;19.80;78.90;;;;;;4994722;28;20029;-72
2022/01/01 07:21:21;;;;;;;2.50;0.90;;;19.80;78.60;;;;;;5012533;28;20040;-72
2022/01/01 07:23:47;;;;;;;2.65;0.70;;;19.70;78.20;;;;;;5012412;28;20021;-72
2022/01/01 07:26:13;;;;;;;2.35;0.90;;;19.70;78.00;;;;;;5012584;28;20029;-74
2022/01/01 07:28:39;;;;;;;2.00;0.77;;;20.10;78.00;;;;;;4994064;28;20033;-73
2022/01/01 07:31:05;;;;;;;2.05;0.90;;;20.40;77.40;;;;;;5012705;28;20060;-72
2022/01/01 07:33:31;;;;;;;2.35;0.90;;;20.90;76.00;;;;;;5011989;28;20064;-72
2022/01/01 07:35:57;;;;;;;3.10;1.00;;;20.90;76.40;;;;;;5012252;28;20030;-72
2022/01/01 07:38:24;;;;;;;1.75;0.88;;;21.30;75.00;;;;;;5012231;28;20037;-72
2022/01/01 07:40:50;;;;;;;2.00;0.82;;;21.20;75.20;;;;;;5012429;28;20057;-71
2022/01/01 07:43:17;;;;;;;;;;;21.30;75.20;;;;;;5012516;28;20082;-72
2022/01/01 07:45:43;;;;;;;;;;;21.90;73.40;;;;;;4995112;28;19913;-71
2022/01/01 07:48:10;;;;;;;1.88;0.80;;;22.50;72.10;;;;;;5011955;28;20346;-71
2022/01/01 07:50:36;;;;;;;2.10;0.80;;;22.30;72.00;;;;;;4994514;28;20378;-71
2022/01/01 07:53:04;;;;;;;2.00;0.75;;;21.70;72.70;;;;;;4994341;28;20382;-71
2022/01/01 07:55:30;;;;;;;2.13;1.05;;;20.90;74.70;;;;;;5011905;28;20141;-72
2022/01/01 07:57:56;;;;;;;3.05;1.00;;;20.00;78.20;;;;;;5011877;28;20025;-71
2022/01/01 08:00:22;;;;;;;2.30;1.02;;;19.30;78.50;;;;;;5012355;28;20112;-71
2022/01/01 08:02:48;;;;;;;2.33;0.93;;;18.80;80.20;;;;;;5011996;28;20483;-71
2022/01/01 08:05:18;;;;;;;2.60;1.00;;;18.70;80.10;;;;;;4993858;28;20145;-72
2022/01/01 08:07:45;;;;;;;1.48;0.75;;;18.80;79.70;;;;;;5011999;28;20018;-71
2022/01/01 08:10:12;;;;;;;2.00;0.90;;;18.80;79.60;;;;;;5012261;28;20045;-71
2022/01/01 08:12:38;;;;;;;3.22;0.80;;;18.80;79.00;;;;;;5011906;28;20112;-72
2022/01/01 08:15:05;;;;;;;;;;;18.80;78.40;;;;;;5012170;28;20026;-71
2022/01/01 08:17:31;;;;;;;1.55;0.82;;;19.10;82.30;;;;;;5011633;28;20392;-72
2022/01/01 08:19:57;;;;;;;2.28;1.10;;;19.30;84.00;;;;;;5012773;28;20037;-71
2022/01/01 08:22:24;;;;;;;2.30;1.10;;;19.50;82.20;;;;;;5012035;28;20030;-72
2022/01/01 08:24:50;;;;;;;3.58;1.17;;;19.60;81.80;;;;;;5012051;28;20281;-71
2022/01/01 08:27:17;;;;;;;9.07;1.40;;;19.70;82.70;;;;;;5012160;28;20076;-71
2022/01/01 08:29:43;;;;;;;2.70;1.02;;;20.00;82.50;;;;;;5011976;28;20030;-71
2022/01/01 08:32:09;;;;;;;4.72;1.20;;;20.20;83.00;;;;;;5012149;28;20037;-71
2022/01/01 08:34:36;;;;;;;;;;;20.40;84.30;;;;;;5012216;28;20161;-70
2022/01/01 08:37:02;;;;;;;3.20;1.27;;;20.60;81.90;;;;;;5011777;28;19917;-71
2022/01/01 08:39:28;;;;;;;3.05;1.20;;;20.70;82.40;;;;;;5012086;28;20500;-71
2022/01/01 08:41:54;;;;;;;2.47;1.23;;;20.80;82.50;;;;;;5014724;28;20037;-71
2022/01/01 08:44:20;;;;;;;4.50;1.40;;;20.90;82.10;;;;;;5015611;28;20030;-71
2022/01/01 08:46:46;;;;;;;3.30;1.45;;;21.00;81.70;;;;;;5015881;28;20034;-72
2022/01/01 08:49:12;;;;;;;2.75;1.20;;;20.80;81.60;;;;;;5015875;28;20018;-72
2022/01/01 08:51:45;;;;;;;3.08;1.40;;;21.00;82.10;;;;;;4997858;28;20029;-73
2022/01/01 08:54:14;;;;;;;2.10;1.00;;;21.10;81.30;;;;;;5015778;28;20062;-71
2022/01/01 08:56:41;;;;;;;4.10;1.10;;;21.20;80.50;;;;;;4997592;28;20141;-72
2022/01/01 08:59:07;;;;;;;3.20;0.93;;;21.30;80.60;;;;;;5015270;28;20105;-71
2022/01/01 09:01:33;;;;;;;1.63;0.73;;;21.40;80.00;;;;;;5015093;28;20049;-72
2022/01/01 09:03:59;;;;;;;1.75;0.80;;;21.40;76.60;;;;;;5015040;28;20080;-72
2022/01/01 09:06:25;;;;;;;1.83;0.70;;;21.40;77.40;;;;;;5014914;28;20045;-73
2022/01/01 09:08:51;;;;;;;6.85;1.40;;;21.00;76.20;;;;;;5015094;28;20025;-72
2022/01/01 09:11:18;;;;;;;3.70;1.67;;;20.90;85.20;;;;;;5014997;28;20034;-73
2022/01/01 09:13:44;;;;;;;3.35;1.63;;;20.80;87.00;;;;;;5014769;28;20026;-72
2022/01/01 09:16:13;;;;;;;3.65;1.55;;;20.80;86.10;;;;;;5014614;28;20034;-72
2022/01/01 09:18:41;;;;;;;3.58;1.90;;;20.70;86.30;;;;;;5014752;28;20038;-73
2022/01/01 09:21:08;;;;;;;3.90;1.55;;;20.70;85.50;;;;;;5014898;28;20026;-73
2022/01/01 09:23:34;;;;;;;3.97;1.90;;;20.80;85.00;;;;;;5014612;28;20101;-72
2022/01/01 09:26:01;;;;;;;5.05;1.80;;;20.80;84.20;;;;;;5014896;28;20053;-74
2022/01/01 09:28:31;;;;;;;3.50;1.80;;;20.60;84.10;;;;;;5015247;28;20030;-73
2022/01/01 09:30:58;;;;;;;4.32;1.77;;;20.50;85.80;;;;;;5014582;28;20022;-73
2022/01/01 09:33:29;;;;;;;4.22;1.60;;;20.60;85.60;;;;;;5014684;28;20079;-69
2022/01/01 09:35:56;;;;;;;2.97;1.40;;;20.70;85.70;;;;;;5014540;28;20033;-74
2022/01/01 09:38:23;;;;;;;2.92;1.40;;;20.80;83.90;;;;;;5014929;28;20149;-74
2022/01/01 09:40:51;;;;;;;3.28;1.40;;;20.90;83.80;;;;;;5014659;28;20079;-73
2022/01/01 09:43:20;;;;;;;2.50;1.25;;;20.80;85.00;;;;;;5014414;28;20126;-74
2022/01/01 09:45:48;;;;;;;6.15;1.73;;;20.80;84.10;;;;;;5014432;28;20101;-73
2022/01/01 09:48:14;;;;;;;2.47;1.48;;;20.90;85.60;;;;;;4997015;28;20021;-73
2022/01/01 09:50:42;;;;;;;3.92;1.75;;;21.10;85.20;;;;;;5014054;28;20033;-70
2022/01/01 09:53:08;;;;;;;2.92;1.50;;;21.00;90.00;;;;;;5014406;28;20105;-75
2022/01/01 09:55:35;;;;;;;3.13;1.58;;;21.00;90.10;;;;;;5014094;28;20501;-74
2022/01/01 09:58:01;;;;;;;3.50;1.42;;;21.00;90.10;;;;;;4997383;28;20026;-73
2022/01/01 10:00:27;;;;;;;2.97;1.33;;;21.10;89.80;;;;;;5014381;28;20018;-74
2022/01/01 10:02:53;;;;;;;3.90;1.70;;;21.30;90.00;;;;;;5014195;28;20096;-72
2022/01/01 10:05:19;;;;;;;4.18;1.60;;;21.50;90.80;;;;;;5014088;28;20538;-73
2022/01/01 10:07:45;;;;;;;4.20;1.55;;;21.70;88.80;;;;;;5013236;28;20034;-74
2022/01/01 10:10:26;;;;;;;4.32;2.33;;;21.80;89.50;;;;;;5013899;28;20022;-75
2022/01/01 10:12:52;;;;;;;2.45;1.20;;;21.60;88.90;;;;;;5013090;28;20026;-74
2022/01/01 10:15:19;;;;;;;5.00;1.27;;;21.40;90.00;;;;;;4995512;28;20053;-71
2022/01/01 10:17:46;;;;;;;3.60;1.40;;;21.40;90.10;;;;;;5013453;28;20516;-72
2022/01/01 10:20:13;;;;;;;3.60;1.80;;;21.50;90.00;;;;;;4995352;28;20025;-73
2022/01/01 10:22:40;;;;;;;8.48;2.10;;;21.60;93.10;;;;;;5013570;28;20034;-72
2022/01/01 10:28:01;;;;;;;6.03;2.85;;;22.00;91.00;;;;;;5013621;28;20463;-72
2022/01/01 10:30:35;;;;;;;9.57;2.83;;;22.10;91.50;;;;;;5013409;28;20072;-72
2022/01/01 10:33:09;;;;;;;7.35;3.45;;;22.20;91.50;;;;;;5013562;28;20014;-71
2022/01/01 10:35:44;;;;;;;7.63;3.78;;;22.20;93.30;;;;;;5013175;28;20037;-71
2022/01/01 10:38:12;;;;;;;6.90;3.30;;;22.20;97.80;;;;;;4995490;28;20061;-70
2022/01/01 10:40:39;;;;;;;8.70;2.60;;;22.20;94.00;;;;;;5013054;28;20117;-68
2022/01/01 10:43:06;;;;;;;8.43;2.80;;;22.20;93.60;;;;;;5012945;28;20030;-70
2022/01/01 10:45:36;;;;;;;6.35;2.70;;;22.30;93.30;;;;;;5013328;28;20072;-69
2022/01/01 10:48:23;;;;;;;4.78;2.63;;;22.40;93.20;;;;;;5013286;28;20065;-69
2022/01/01 10:50:51;;;;;;;11.07;7.63;;;22.40;93.20;;;;;;5012835;28;20482;-71
2022/01/01 10:53:25;;;;;;;10.82;6.40;;;22.50;93.60;;;;;;5013757;28;20088;-71
2022/01/01 10:56:03;;;;;;;11.48;6.90;;;22.60;93.60;;;;;;5013024;28;20458;-71
2022/01/01 10:58:32;;;;;;;8.55;5.60;;;22.70;93.60;;;;;;5013278;28;20030;-72
2022/01/01 11:01:06;;;;;;;11.10;5.00;;;22.70;93.70;;;;;;5013053;28;20482;-71
2022/01/01 11:03:45;;;;;;;8.05;4.50;;;22.70;93.60;;;;;;5012100;28;20026;-71
2022/01/01 11:06:19;;;;;;;9.82;4.07;;;22.70;93.50;;;;;;5012429;28;20165;-70
2022/01/01 11:08:46;;;;;;;13.13;3.90;;;22.80;93.40;;;;;;5012833;28;20022;-71
2022/01/01 11:11:15;;;;;;;6.10;2.72;;;22.80;93.60;;;;;;5012656;28;20390;-71
2022/01/01 11:13:42;;;;;;;5.90;3.17;;;22.90;93.70;;;;;;5013166;28;20026;-72
2022/01/01 11:16:09;;;;;;;8.63;4.95;;;22.80;93.90;;;;;;5012702;28;20056;-71
2022/01/01 11:18:35;;;;;;;;;;;22.90;94.10;;;;;;5013154;28;20080;-70
2022/01/01 11:21:04;;;;;;;15.60;8.75;;;22.90;92.70;;;;;;5012035;28;19959;-70
2022/01/01 11:23:32;;;;;;;14.98;9.23;;;22.90;93.30;;;;;;5011936;28;20090;-72
2022/01/01 11:25:58;;;;;;;15.85;9.15;;;22.80;93.20;;;;;;5012378;28;20030;-71
2022/01/01 11:28:25;;;;;;;13.25;7.40;;;22.60;93.10;;;;;;5012981;28;20037;-71
2022/01/01 11:30:58;;;;;;;18.00;9.52;;;22.40;91.90;;;;;;5012478;28;20026;-71
2022/01/01 11:33:33;;;;;;;73.57;37.00;;;22.30;93.10;;;;;;5012655;28;20397;-71
2022/01/01 11:36:01;;;;;;;177.00;93.53;;;22.40;93.90;;;;;;5012512;28;20030;-70
2022/01/01 11:38:29;;;;;;;80.68;44.95;;;22.60;94.30;;;;;;5012538;28;20523;-72
2022/01/01 11:40:58;;;;;;;44.80;25.70;;;22.70;93.80;;;;;;5012545;28;20061;-72
2022/01/01 11:43:49;;;;;;;53.58;30.15;;;22.80;93.60;;;;;;5012490;28;20056;-73
2022/01/01 11:46:17;;;;;;;14.10;7.13;;;22.50;93.90;;;;;;5012886;28;20033;-73
2022/01/01 11:48:48;;;;;;;11.48;6.22;;;22.50;93.90;;;;;;5012440;28;20018;-73
2022/01/01 11:51:35;;;;;;;12.55;6.97;;;22.70;94.00;;;;;;5012229;28;20037;-73
2022/01/01 11:54:32;;;;;;;9.05;4.28;;;22.90;93.40;;;;;;5012294;28;20034;-70
2022/01/01 11:57:08;;;;;;;9.60;4.60;;;23.00;93.20;;;;;;5011655;28;20152;-70
2022/01/01 11:59:37;;;;;;;8.13;4.30;;;23.00;93.70;;;;;;5019759;28;20022;-71
2022/01/01 12:02:24;;;;;;;12.25;3.60;;;23.10;93.10;;;;;;5014566;28;20026;-73
2022/01/01 12:04:54;;;;;;;6.38;3.20;;;23.00;93.70;;;;;;5012097;28;20081;-70
2022/01/01 12:07:20;;;;;;;10.35;3.42;;;22.60;94.10;;;;;;5011939;28;20463;-71
2022/01/01 12:10:07;;;;;;;8.25;3.60;;;22.70;94.10;;;;;;5012307;28;20036;-72
2022/01/01 12:12:48;;;;;;;6.90;3.70;;;22.80;93.90;;;;;;5012227;28;20025;-73
2022/01/01 12:15:51;;;;;;;9.80;4.00;;;22.80;95.20;;;;;;4995643;28;20398;-72
2022/01/01 12:18:22;;;;;;;8.80;3.35;;;22.80;95.90;;;;;;4936172;29;20141;-72
2022/01/01 12:20:56;;;;;;;8.55;3.30;;;22.40;95.80;;;;;;4936263;29;20039;-72
2022/01/01 12:23:33;;;;;;;8.60;3.10;;;22.50;96.80;;;;;;4935950;29;20504;-72
2022/01/01 12:26:00;;;;;;;8.60;3.53;;;22.40;94.50;;;;;;4936178;29;20500;-72
2022/01/01 12:28:31;;;;;;;10.10;3.33;;;22.40;94.50;;;;;;4936010;29;20032;-72
2022/01/01 12:31:19;;;;;;;7.22;2.60;;;22.40;94.80;;;;;;4936626;29;20032;-72
2022/01/01 12:33:49;;;;;;;8.02;2.63;;;22.50;96.00;;;;;;4936361;29;20519;-72
2022/01/01 12:36:20;;;;;;;8.70;2.88;;;22.60;95.00;;;;;;4936297;29;20115;-73
2022/01/01 12:39:07;;;;;;;5.25;2.65;;;22.50;95.00;;;;;;4936029;29;20042;-73
2022/01/01 12:41:39;;;;;;;10.98;2.70;;;22.60;94.90;;;;;;4935760;29;20144;-73
2022/01/01 12:44:19;;;;;;;7.18;2.50;;;22.50;95.00;;;;;;4936066;29;20032;-74
2022/01/01 12:46:46;;;;;;;8.77;2.75;;;22.70;94.90;;;;;;4935828;29;20039;-73
2022/01/01 12:49:13;;;;;;;8.60;2.85;;;22.80;94.70;;;;;;4935839;29;20032;-71
2022/01/01 12:51:40;;;;;;;8.05;2.63;;;22.70;96.40;;;;;;4957273;28;20478;-73
2022/01/01 12:54:10;;;;;;;;;;;22.90;95.30;;;;;;5016091;28;20514;-73
2022/01/01 12:56:39;;;;;;;7.18;2.38;;;23.00;94.90;;;;;;5015619;28;20064;-72
2022/01/01 12:59:11;;;;;;;7.93;3.00;;;23.00;94.60;;;;;;5015125;28;20156;-71
2022/01/01 13:01:44;;;;;;;6.35;2.30;;;23.10;94.60;;;;;;5015606;28;20026;-71